Terminal Aerodrome Forecast
Issued by NWS El Paso, TX

Current Version | Previous Version | Text Only | Print | Product List | Glossary On
Versions: 1 2 3 4 5 6 7 8 9 10 11 12 13 14
498
FTUS44 KEPZ 272332
TAFELP
TAF
KELP 272332Z 2800/2824 26015G25KT P6SM FEW100 FEW250
     FM280400 29012KT P6SM FEW100 FEW250
     FM281000 05015G25KT P6SM FEW080 SCT250
     FM281800 10012G18KT P6SM SCT060 SCT200=

USA.gov is the U.S. government's official web portal to all federal, state and local government web resources and services.